• pl
  • eng

Awiacja
WIADOMOŚCI
ostatnia aktualizacja: 26.03.2018 14:15
Szanowni Państwo,

uprzejmie informujemy, że od dnia 29 marca br., od godziny 08.30 UTC, IMGW-PIB wprowadza zmianę częstotliwości wydawania prognoz TAF FT dla lotnisk EPWA, EPKK i EPWR. Od tego terminu prognozy będą publikowane co 3 godziny. Okres ich ważności nie ulega zmianie.

Komunikaty METAR z lotnisk wojskowych. 06:01 24.04.2018

METAR EPCE 240400Z 25004KT 9999 FEW216 03/03
Q1011 RMK 033 095 2/2 =

METAR EPDA 240400Z 23007KT 210V290 9999 SCT230 09/05
Q1011 RMK 085 080 4/4 =

METAR EPDE 240400Z NIL=

METAR EPIR 240400Z NIL=

METAR EPKS 240400Z 00000KT 9999 BKN050 10/06 Q1014 RMK 095 078 6/6=

METAR EPLK 240400Z VRB01KT 4000 BR BKN048 10/09 Q1014 RMK 096 097
7/7=

METAR EPLY 240400Z VRB02KT 8000 BKN050 11/10 Q1015 RMK 113 092 7/7=

METAR EPMB 240400Z NIL=

METAR EPMI 240400Z 26002KT CAVOK 08/03 Q1014 RMK 077 074 3/0=

METAR EPMM 240400Z 30008KT CAVOK 11/10 Q1013 RMK 113 091 7/6=

METAR EPNA 240400Z NIL=

METAR EPOK 240400Z 26009KT 9999 BKN251 07/04
Q1011 RMK 074 081 6/6 =

METAR EPPR 240400Z 24004KT CAVOK 07/04 Q1012 RMK 070 079 3/3=

METAR EPPW 240400Z VRB02KT 8000 MIFG BKN050 08/07 Q1014 RMK 082 095
5/5 =

METAR EPSN 240400Z 22006KT CAVOK 06/04 Q1012 RMK 064 082 0/0=

METAR EPTM 240400Z 31004KT 4000 BR BKN050 11/10 Q1014 RMK 105 095
6/6=
 METAR EPSN
Lokalizacja:EPSN Świdwin
Czas:04:00 UTC
Średni kierunek wiatru:220 °
Średnia prędkość wiatru:6 węzłów
CAVOK:Widzialność 10 km i więcej, zjawisko: NIL, zachmurzenie: NSC
Temperatura powietrza:6 °C
Temperatura punktu rosy:4 °C
Ciśnienie QNH:1012 hPa
Dokładna temperatura powietrza:6,4 °C
Dokładna wilgotność względna:82 %
Zachmurzenie przez wszystkie piętra chmur:0/8
Zachmurzenie przez chmury niskie:0/8
Awiacja.imgw.pl jest pogodowym serwisem informacyjnym
Instytutu Meteorologii i Gospodarki Wodnej Państwowego Instytutu Badawczego.
Copyright IMGW PIB 2009-2011© Wszelkie prawa zastrzeżone.